Strona główna
METAR-TAF:

METAR-TAF

Lotnisko :

Tarvisio, Włochy

Szerokość geograficzna: 46-30N, Długość geograficzna: 013-35E, wysokość: 777 m

Aktualna obserwacja pogody

Raport powstał 8 godziny i 33 minut temu, godzina 17:55 UTC
Cisza
Temperatura 11°C
Wilgotność 54%
Ciśnienie 1024 hPa
Widzialność 10 km lub więcej
Brak chmur poniżej 1500 m i brak chmur cumulonimbus

METAR: LIVO 051755Z 00000KT CAVOK 11/02 Q1024 RMK SKC VIS MIN 9999

czas: 04:28 (02:28 UTC)


TAF: brakujący

Obserwacja i prognoza pogody dla ponad 4000 lotnisk (raport METAR i TAF).

Dostępne stacje oznaczono żółtymi i czerwonymi punktami na mapie.

Najedź kursorem aby zobaczyć nazwę stacji.

Kliknij aby zobaczyć obserwacje i prognozy pogody.

Aby zmienić mapę: kliknij na zielony przycisk z czarnym krzyżykiem, aby powiększyć; na zielony przycisk z myślnikiem, aby pomniejszyć; na zielone strzałki, aby przejść do map sąsiednich.


METAR-TAF: